createdAt,value
2016-06-15T00:00:17.581Z,21.68
2016-06-15T00:01:17.569Z,21.67
2016-06-15T00:02:17.166Z,21.73
2016-06-15T00:03:17.575Z,21.73
2016-06-15T00:04:17.578Z,21.67
2016-06-15T00:05:18.269Z,21.68
2016-06-15T00:06:17.412Z,21.7
2016-06-15T00:07:17.571Z,21.71
2016-06-15T00:08:17.778Z,21.74
2016-06-15T00:09:17.577Z,21.71
2016-06-15T00:10:17.425Z,21.7
2016-06-15T00:11:17.365Z,21.73
2016-06-15T00:12:17.369Z,21.76
2016-06-15T00:13:17.183Z,21.62
2016-06-15T00:14:17.781Z,21.7
2016-06-15T00:15:17.159Z,21.68
2016-06-15T00:16:17.568Z,21.62
2016-06-15T00:17:17.571Z,21.64
2016-06-15T00:18:17.184Z,21.59
2016-06-15T00:19:17.765Z,21.56
2016-06-15T00:20:17.986Z,21.62
2016-06-15T00:21:17.569Z,21.64
2016-06-15T00:22:17.383Z,21.56
2016-06-15T00:23:17.387Z,21.61
2016-06-15T00:24:17.358Z,21.61
2016-06-15T00:25:17.565Z,21.61
2016-06-15T00:26:17.567Z,21.66
2016-06-15T00:27:17.571Z,21.61
2016-06-15T00:28:17.573Z,21.58
2016-06-15T00:29:17.577Z,21.62
2016-06-15T00:30:17.766Z,21.61
2016-06-15T00:31:17.567Z,21.62
2016-06-15T00:32:17.367Z,21.58
2016-06-15T00:33:17.558Z,21.61
2016-06-15T00:34:17.576Z,21.66
2016-06-15T00:35:18.345Z,21.56
2016-06-15T00:36:17.177Z,21.66
2016-06-15T00:37:17.007Z,21.53
2016-06-15T00:38:17.573Z,21.48
2016-06-15T00:39:17.561Z,21.52
2016-06-15T00:40:17.564Z,21.49
2016-06-15T00:41:17.550Z,21.53
2016-06-15T00:42:17.554Z,21.51
2016-06-15T00:43:17.354Z,21.55
2016-06-15T00:44:17.576Z,21.59
2016-06-15T00:45:17.157Z,21.56
2016-06-15T00:46:17.410Z,21.56
2016-06-15T00:47:17.569Z,21.52
2016-06-15T00:48:17.557Z,21.53
2016-06-15T00:49:17.357Z,21.48
2016-06-15T00:50:17.766Z,21.49
2016-06-15T00:51:17.567Z,21.49
2016-06-15T00:52:17.350Z,21.51
2016-06-15T00:53:17.760Z,21.49
2016-06-15T00:54:17.357Z,21.52
2016-06-15T00:55:17.141Z,21.46
2016-06-15T00:56:17.551Z,21.55
2016-06-15T00:57:17.147Z,21.52
2016-06-15T00:58:17.588Z,21.45
2016-06-15T00:59:17.814Z,21.55
2016-06-15T01:00:17.463Z,21.45
2016-06-15T01:01:17.893Z,21.45
2016-06-15T01:02:17.323Z,21.52
2016-06-15T01:03:17.734Z,21.41
2016-06-15T01:04:17.563Z,21.49
2016-06-15T01:05:18.798Z,21.52
2016-06-15T01:06:17.423Z,21.46
2016-06-15T01:07:17.580Z,21.49
2016-06-15T01:08:17.792Z,21.4
2016-06-15T01:09:18.004Z,21.45
2016-06-15T01:10:17.808Z,21.45
2016-06-15T01:11:17.410Z,21.45
2016-06-15T01:12:18.027Z,21.38
2016-06-15T01:13:17.627Z,21.4
2016-06-15T01:14:17.881Z,21.51
2016-06-15T01:15:17.620Z,21.38
2016-06-15T01:16:17.625Z,21.37
2016-06-15T01:17:17.832Z,21.4
2016-06-15T01:18:17.618Z,21.37
2016-06-15T01:19:17.824Z,21.4
2016-06-15T01:20:18.407Z,21.36
2016-06-15T01:21:17.879Z,21.4
2016-06-15T01:22:17.415Z,21.31
2016-06-15T01:23:17.839Z,21.33
2016-06-15T01:24:17.827Z,21.36
2016-06-15T01:25:17.814Z,21.33
2016-06-15T01:26:17.614Z,21.38
2016-06-15T01:27:17.618Z,21.36
2016-06-15T01:28:17.823Z,21.31
2016-06-15T01:29:17.421Z,21.38
2016-06-15T01:30:17.610Z,21.33
2016-06-15T01:31:18.036Z,21.36
2016-06-15T01:32:17.835Z,21.37
2016-06-15T01:33:18.011Z,21.34
2016-06-15T01:34:17.622Z,21.36
2016-06-15T01:35:17.642Z,21.36
2016-06-15T01:36:17.613Z,21.34
2016-06-15T01:37:17.836Z,21.3
2016-06-15T01:38:17.417Z,21.34
2016-06-15T01:39:18.013Z,21.38
2016-06-15T01:40:17.610Z,21.4
2016-06-15T01:41:18.019Z,21.34
2016-06-15T01:42:17.413Z,21.41
2016-06-15T01:43:17.604Z,21.31
2016-06-15T01:44:17.811Z,21.33
2016-06-15T01:45:17.610Z,21.34
2016-06-15T01:46:18.066Z,21.36
2016-06-15T01:47:17.600Z,21.34
2016-06-15T01:48:18.010Z,21.31
2016-06-15T01:49:17.810Z,21.3
2016-06-15T01:50:18.329Z,21.31
2016-06-15T01:51:17.597Z,21.33
2016-06-15T01:52:17.803Z,21.3
2016-06-15T01:53:17.806Z,21.37
2016-06-15T01:54:18.013Z,21.28
2016-06-15T01:55:17.625Z,21.34
2016-06-15T01:56:17.394Z,21.33
2016-06-15T01:57:17.803Z,21.3
2016-06-15T01:58:18.009Z,21.33
2016-06-15T01:59:17.825Z,21.28
2016-06-15T02:00:18.016Z,21.33
2016-06-15T02:01:17.800Z,21.31
2016-06-15T02:02:18.006Z,21.3
2016-06-15T02:03:17.587Z,21.33
2016-06-15T02:04:18.012Z,21.25
2016-06-15T02:05:17.734Z,21.37
2016-06-15T02:06:18.003Z,21.33
2016-06-15T02:07:17.599Z,21.23
2016-06-15T02:08:17.587Z,21.23
2016-06-15T02:09:17.793Z,21.22
2016-06-15T02:10:17.999Z,21.25
2016-06-15T02:11:17.644Z,21.25
2016-06-15T02:12:17.631Z,21.22
2016-06-15T02:13:17.790Z,21.27
2016-06-15T02:14:17.653Z,21.3
2016-06-15T02:15:17.593Z,21.23
2016-06-15T02:16:17.784Z,21.21
2016-06-15T02:17:17.584Z,21.23
2016-06-15T02:18:17.680Z,21.19
2016-06-15T02:19:17.793Z,21.22
2016-06-15T02:20:18.202Z,21.23
2016-06-15T02:21:17.830Z,21.21
2016-06-15T02:22:17.381Z,21.19
2016-06-15T02:23:17.383Z,21.33
2016-06-15T02:24:17.574Z,21.16
2016-06-15T02:25:17.592Z,21.15
2016-06-15T02:26:17.782Z,21.16
2016-06-15T02:27:17.785Z,21.15
2016-06-15T02:28:17.586Z,21.27
2016-06-15T02:29:17.416Z,21.13
2016-06-15T02:30:17.624Z,21.16
2016-06-15T02:31:17.782Z,21.13
2016-06-15T02:32:17.583Z,21.12
2016-06-15T02:33:17.586Z,21.09
2016-06-15T02:34:17.792Z,21.21
2016-06-15T02:35:17.779Z,21.21
2016-06-15T02:36:17.423Z,21.21
2016-06-15T02:37:17.770Z,21.18
2016-06-15T02:38:17.773Z,21.19
2016-06-15T02:39:17.979Z,21.13
2016-06-15T02:40:17.779Z,21.13
2016-06-15T02:41:17.783Z,21.15
2016-06-15T02:42:17.566Z,21.21
2016-06-15T02:43:17.789Z,21.15
2016-06-15T02:44:17.979Z,21.15
2016-06-15T02:45:17.560Z,21.06
2016-06-15T02:46:18.016Z,21.11
2016-06-15T02:47:17.566Z,21.18
2016-06-15T02:48:17.772Z,21.08
2016-06-15T02:49:17.775Z,21.15
2016-06-15T02:50:17.951Z,21.11
2016-06-15T02:51:17.984Z,21.08
2016-06-15T02:52:17.567Z,21.03
2016-06-15T02:53:17.975Z,21.12
2016-06-15T02:54:17.760Z,21.11
2016-06-15T02:55:17.576Z,21.04
2016-06-15T02:56:17.547Z,21.06
2016-06-15T02:57:17.409Z,21.04
2016-06-15T02:58:17.553Z,21.04
2016-06-15T02:59:17.602Z,21.03
2016-06-15T03:00:17.575Z,21.08
2016-06-15T03:01:17.359Z,21.12
2016-06-15T03:02:17.348Z,20.98
2016-06-15T03:03:17.553Z,21.06
2016-06-15T03:04:17.759Z,21.08
2016-06-15T03:05:18.762Z,21.09
2016-06-15T03:06:17.563Z,21.12
2016-06-15T03:07:17.753Z,21.08
2016-06-15T03:08:17.569Z,20.98
2016-06-15T03:09:17.759Z,21.09
2016-06-15T03:10:17.980Z,21.01
2016-06-15T03:11:17.546Z,21.04
2016-06-15T03:12:17.940Z,21.09
2016-06-15T03:13:17.756Z,21.04
2016-06-15T03:14:17.946Z,21.06
2016-06-15T03:15:17.746Z,21.03
2016-06-15T03:16:17.952Z,21
2016-06-15T03:17:17.550Z,20.93
2016-06-15T03:18:17.552Z,21.01
2016-06-15T03:19:17.539Z,21.04
2016-06-15T03:20:17.948Z,21.01
2016-06-15T03:21:17.889Z,20.97
2016-06-15T03:22:17.189Z,21
2016-06-15T03:23:17.943Z,21
2016-06-15T03:24:17.742Z,20.97
2016-06-15T03:25:17.730Z,20.96
2016-06-15T03:26:17.733Z,20.97
2016-06-15T03:27:17.736Z,20.93
2016-06-15T03:28:17.536Z,20.94
2016-06-15T03:29:17.570Z,20.96
2016-06-15T03:30:17.729Z,20.91
2016-06-15T03:31:17.936Z,21.01
2016-06-15T03:32:17.735Z,20.96
2016-06-15T03:33:17.942Z,20.9
2016-06-15T03:34:17.930Z,20.93
2016-06-15T03:35:17.573Z,20.96
2016-06-15T03:36:17.655Z,20.94
2016-06-15T03:37:17.533Z,20.96
2016-06-15T03:38:17.536Z,20.96
2016-06-15T03:39:17.726Z,20.94
2016-06-15T03:40:17.714Z,20.94
2016-06-15T03:41:17.732Z,20.94
2016-06-15T03:42:17.720Z,21
2016-06-15T03:43:17.723Z,20.93
2016-06-15T03:44:17.772Z,20.88
2016-06-15T03:45:17.917Z,20.91
2016-06-15T03:46:17.763Z,20.91
2016-06-15T03:47:17.517Z,20.86
2016-06-15T03:48:17.909Z,20.91
2016-06-15T03:49:17.726Z,20.91
2016-06-15T03:50:17.775Z,20.85
2016-06-15T03:51:17.591Z,20.83
2016-06-15T03:52:17.515Z,20.91
2016-06-15T03:53:17.707Z,20.82
2016-06-15T03:54:17.912Z,20.9
2016-06-15T03:55:17.916Z,20.91
2016-06-15T03:56:17.497Z,20.9
2016-06-15T03:57:17.344Z,20.83
2016-06-15T03:58:17.910Z,20.85
2016-06-15T03:59:17.912Z,20.79
2016-06-15T04:00:17.712Z,20.76
2016-06-15T04:01:17.513Z,20.83
2016-06-15T04:02:17.718Z,20.9
2016-06-15T04:03:17.706Z,20.81
2016-06-15T04:04:17.708Z,20.79
2016-06-15T04:05:17.994Z,20.86
2016-06-15T04:06:17.700Z,20.83
2016-06-15T04:07:17.500Z,20.85
2016-06-15T04:08:17.690Z,20.82
2016-06-15T04:09:17.334Z,20.75
2016-06-15T04:10:17.899Z,20.79
2016-06-15T04:11:17.684Z,20.88
2016-06-15T04:12:17.312Z,20.78
2016-06-15T04:13:17.705Z,20.78
2016-06-15T04:14:17.693Z,20.74
2016-06-15T04:15:17.478Z,20.79
2016-06-15T04:16:17.683Z,20.76
2016-06-15T04:17:17.703Z,20.74
2016-06-15T04:18:17.690Z,20.76
2016-06-15T04:19:17.693Z,20.81
2016-06-15T04:20:17.477Z,20.71
2016-06-15T04:21:17.496Z,20.76
2016-06-15T04:22:17.686Z,20.67
2016-06-15T04:23:17.689Z,20.67
2016-06-15T04:24:17.475Z,20.64
2016-06-15T04:25:17.492Z,20.66
2016-06-15T04:26:17.684Z,20.71
2016-06-15T04:27:17.873Z,20.67
2016-06-15T04:28:17.674Z,20.72
2016-06-15T04:29:17.474Z,20.68
2016-06-15T04:30:17.524Z,20.76
2016-06-15T04:31:17.683Z,20.66
2016-06-15T04:32:17.467Z,20.64
2016-06-15T04:33:17.267Z,20.71
2016-06-15T04:34:17.661Z,20.63
2016-06-15T04:35:17.664Z,20.66
2016-06-15T04:36:17.792Z,20.74
2016-06-15T04:37:17.873Z,20.71
2016-06-15T04:38:17.470Z,20.66
2016-06-15T04:39:17.457Z,20.67
2016-06-15T04:40:17.461Z,20.67
2016-06-15T04:41:17.666Z,20.64
2016-06-15T04:42:17.466Z,20.71
2016-06-15T04:43:17.860Z,20.64
2016-06-15T04:44:17.503Z,20.61
2016-06-15T04:45:17.459Z,20.66
2016-06-15T04:46:17.526Z,20.6
2016-06-15T04:47:17.653Z,20.56
2016-06-15T04:48:17.657Z,20.56
2016-06-15T04:49:17.660Z,20.57
2016-06-15T04:50:17.850Z,20.56
2016-06-15T04:51:17.791Z,20.54
2016-06-15T04:52:17.247Z,20.56
2016-06-15T04:53:17.453Z,20.53
2016-06-15T04:54:17.706Z,20.54
2016-06-15T04:55:17.287Z,20.49
2016-06-15T04:56:17.447Z,20.56
2016-06-15T04:57:17.232Z,20.56
2016-06-15T04:58:17.640Z,20.56
2016-06-15T04:59:17.441Z,20.49
2016-06-15T05:00:17.427Z,20.57
2016-06-15T05:01:17.259Z,20.57
2016-06-15T05:02:17.637Z,20.57
2016-06-15T05:03:17.640Z,20.57
2016-06-15T05:04:17.440Z,20.48
2016-06-15T05:05:17.850Z,20.51
2016-06-15T05:06:17.884Z,20.53
2016-06-15T05:07:17.434Z,20.56
2016-06-15T05:08:17.641Z,20.53
2016-06-15T05:09:17.674Z,20.53
2016-06-15T05:10:17.834Z,20.58
2016-06-15T05:11:17.477Z,20.42
2016-06-15T05:12:17.825Z,20.49
2016-06-15T05:13:17.421Z,20.54
2016-06-15T05:14:17.628Z,20.42
2016-06-15T05:15:17.412Z,20.53
2016-06-15T05:16:17.430Z,20.44
2016-06-15T05:17:17.621Z,20.4
2016-06-15T05:18:17.405Z,20.41
2016-06-15T05:19:17.612Z,20.48
2016-06-15T05:20:17.614Z,20.41
2016-06-15T05:21:18.040Z,20.41
2016-06-15T05:22:17.620Z,20.48
2016-06-15T05:23:17.827Z,20.44
2016-06-15T05:24:17.220Z,20.4
2016-06-15T05:25:17.412Z,20.42
2016-06-15T05:26:17.617Z,20.4
2016-06-15T05:27:17.402Z,20.44
2016-06-15T05:28:17.811Z,20.58
2016-06-15T05:29:17.611Z,20.44
2016-06-15T05:30:17.817Z,20.42
2016-06-15T05:31:17.601Z,20.42
2016-06-15T05:32:17.604Z,20.4
2016-06-15T05:33:17.607Z,20.41
2016-06-15T05:34:17.595Z,20.49
2016-06-15T05:35:17.396Z,20.38
2016-06-15T05:36:17.898Z,20.38
2016-06-15T05:37:17.401Z,20.4
2016-06-15T05:38:17.404Z,20.44
2016-06-15T05:39:17.391Z,20.41
2016-06-15T05:40:17.597Z,20.4
2016-06-15T05:41:17.804Z,20.44
2016-06-15T05:42:17.589Z,20.44
2016-06-15T05:43:17.387Z,20.38
2016-06-15T05:44:17.438Z,20.41
2016-06-15T05:45:17.379Z,20.44
2016-06-15T05:46:17.836Z,20.35
2016-06-15T05:47:17.588Z,20.4
2016-06-15T05:48:17.592Z,20.44
2016-06-15T05:49:17.578Z,20.42
2016-06-15T05:50:17.784Z,20.42
2016-06-15T05:51:17.787Z,20.42
2016-06-15T05:52:17.791Z,20.46
2016-06-15T05:53:17.372Z,20.49
2016-06-15T05:54:17.579Z,20.46
2016-06-15T05:55:17.581Z,20.41
2016-06-15T05:56:17.163Z,20.48
2016-06-15T05:57:17.369Z,20.44
2016-06-15T05:58:17.575Z,20.51
2016-06-15T05:59:17.781Z,20.48
2016-06-15T06:00:17.565Z,20.38
2016-06-15T06:01:17.568Z,20.51
2016-06-15T06:02:17.572Z,20.44
2016-06-15T06:03:17.356Z,20.38
2016-06-15T06:04:17.563Z,20.38
2016-06-15T06:05:17.565Z,20.4
2016-06-15T06:06:17.162Z,20.38
2016-06-15T06:07:17.775Z,20.41
2016-06-15T06:08:17.372Z,20.51
2016-06-15T06:09:17.608Z,20.41
2016-06-15T06:10:17.565Z,20.42
2016-06-15T06:11:17.553Z,20.48
2016-06-15T06:12:17.556Z,20.53
2016-06-15T06:13:17.372Z,20.57
2016-06-15T06:14:17.187Z,20.42
2016-06-15T06:15:17.550Z,20.41
2016-06-15T06:16:17.396Z,20.41
2016-06-15T06:17:17.743Z,20.54
2016-06-15T06:18:17.339Z,20.44
2016-06-15T06:19:17.546Z,20.4
2016-06-15T06:20:17.752Z,20.51
2016-06-15T06:21:17.818Z,20.53
2016-06-15T06:22:17.337Z,20.57
2016-06-15T06:23:17.340Z,20.58
2016-06-15T06:24:17.546Z,20.51
2016-06-15T06:25:17.549Z,20.56
2016-06-15T06:26:17.536Z,20.54
2016-06-15T06:27:17.742Z,20.48
2016-06-15T06:28:17.573Z,20.56
2016-06-15T06:29:17.327Z,20.56
2016-06-15T06:30:17.517Z,20.56
2016-06-15T06:31:17.333Z,20.51
2016-06-15T06:32:17.523Z,20.56
2016-06-15T06:33:17.527Z,20.54
2016-06-15T06:34:17.327Z,20.56
2016-06-15T06:35:17.314Z,20.54
2016-06-15T06:36:17.161Z,20.49
2016-06-15T06:37:17.319Z,20.56
2016-06-15T06:38:17.526Z,20.53
2016-06-15T06:39:17.717Z,20.54
2016-06-15T06:40:17.313Z,20.56
2016-06-15T06:41:17.520Z,20.54
2016-06-15T06:42:17.523Z,20.57
2016-06-15T06:43:17.307Z,20.56
2016-06-15T06:44:19.529Z,20.53
2016-06-15T06:45:17.314Z,20.56
2016-06-15T06:46:17.519Z,20.57
2016-06-15T06:47:17.710Z,20.49
2016-06-15T06:48:17.509Z,20.58
2016-06-15T06:49:17.310Z,20.51
2016-06-15T06:50:17.704Z,20.54
2016-06-15T06:51:16.988Z,20.56
2016-06-15T06:52:17.288Z,20.58
2016-06-15T06:53:17.307Z,20.56
2016-06-15T06:54:17.497Z,20.54
2016-06-15T06:55:17.704Z,20.56
2016-06-15T06:56:17.300Z,20.54
2016-06-15T06:57:17.179Z,20.56
2016-06-15T06:58:17.306Z,20.6
2016-06-15T06:59:17.701Z,20.56
2016-06-15T07:00:17.688Z,20.51
2016-06-15T07:01:17.285Z,20.57
2016-06-15T07:02:17.491Z,20.56
2016-06-15T07:03:17.494Z,20.51
2016-06-15T07:04:17.497Z,20.53
2016-06-15T07:05:17.687Z,20.57
2016-06-15T07:06:17.518Z,20.56
2016-06-15T07:07:17.537Z,20.54
2016-06-15T07:08:17.493Z,20.63
2016-06-15T07:09:17.699Z,20.54
2016-06-15T07:10:17.687Z,20.64
2016-06-15T07:11:17.691Z,20.6
2016-06-15T07:12:17.677Z,20.67
2016-06-15T07:13:17.478Z,20.58
2016-06-15T07:14:17.464Z,20.54
2016-06-15T07:15:17.468Z,20.63
2016-06-15T07:16:17.456Z,20.63
2016-06-15T07:17:17.459Z,20.61
2016-06-15T07:18:17.462Z,20.58
2016-06-15T07:19:17.262Z,20.61
2016-06-15T07:20:17.468Z,20.61
2016-06-15T07:21:17.394Z,20.63
2016-06-15T07:22:17.114Z,20.63
2016-06-15T07:23:17.461Z,20.64
2016-06-15T07:24:17.464Z,20.64
2016-06-15T07:25:17.452Z,20.72
2016-06-15T07:26:17.454Z,20.64
2016-06-15T07:27:17.255Z,20.67
2016-06-15T07:28:17.493Z,20.64
2016-06-15T07:29:17.449Z,20.63
2016-06-15T07:30:17.452Z,20.64
2016-06-15T07:31:17.455Z,20.61
2016-06-15T07:32:17.098Z,20.6
2016-06-15T07:33:17.445Z,20.67
2016-06-15T07:34:17.433Z,20.68
2016-06-15T07:35:17.451Z,20.61
2016-06-15T07:36:18.048Z,20.71
2016-06-15T07:37:17.457Z,20.66
2016-06-15T07:38:17.445Z,20.63
2016-06-15T07:39:17.463Z,20.64
2016-06-15T07:40:17.436Z,20.64
2016-06-15T07:41:17.236Z,20.67
2016-06-15T07:42:17.425Z,20.68
2016-06-15T07:43:17.226Z,20.67
2016-06-15T07:44:17.432Z,20.67
2016-06-15T07:45:17.232Z,20.68
2016-06-15T07:46:17.032Z,20.71
2016-06-15T07:47:17.629Z,20.63
2016-06-15T07:48:17.429Z,20.71
2016-06-15T07:49:17.010Z,20.67
2016-06-15T07:50:17.466Z,20.76
2016-06-15T07:51:17.281Z,20.63
2016-06-15T07:52:17.567Z,20.68
2016-06-15T07:53:17.225Z,20.68
2016-06-15T07:54:17.415Z,20.68
2016-06-15T07:55:17.216Z,20.71
2016-06-15T07:56:17.204Z,20.71
2016-06-15T07:57:17.207Z,20.67
2016-06-15T07:58:17.209Z,20.71
2016-06-15T07:59:17.416Z,20.68
2016-06-15T08:00:17.606Z,20.78
2016-06-15T08:01:17.406Z,20.71
2016-06-15T08:02:17.206Z,20.85
2016-06-15T08:03:17.412Z,20.74
2016-06-15T08:04:16.993Z,20.76
2016-06-15T08:05:17.403Z,20.75
2016-06-15T08:06:17.407Z,20.74
2016-06-15T08:07:17.205Z,20.78
2016-06-15T08:08:17.413Z,20.81
2016-06-15T08:09:17.400Z,20.83
2016-06-15T08:10:17.402Z,20.88
2016-06-15T08:11:17.390Z,20.81
2016-06-15T08:12:17.392Z,20.81
2016-06-15T08:13:17.193Z,20.83
2016-06-15T08:14:17.399Z,20.83
2016-06-15T08:15:16.996Z,20.86
2016-06-15T08:16:17.219Z,20.83
2016-06-15T08:17:17.393Z,20.88
2016-06-15T08:18:17.193Z,20.86
2016-06-15T08:19:17.196Z,20.85
2016-06-15T08:20:17.433Z,20.86
2016-06-15T08:21:17.390Z,20.83
2016-06-15T08:22:19.408Z,20.83
2016-06-15T08:23:17.193Z,20.9
2016-06-15T08:24:17.305Z,20.88
2016-06-15T08:25:17.386Z,20.93
2016-06-15T08:26:17.374Z,20.91
2016-06-15T08:27:17.189Z,20.97
2016-06-15T08:28:17.395Z,20.96
2016-06-15T08:29:17.383Z,20.96
2016-06-15T08:30:17.417Z,20.94
2016-06-15T08:31:17.373Z,20.93
2016-06-15T08:32:17.362Z,20.97
2016-06-15T08:33:17.379Z,20.98
2016-06-15T08:34:17.383Z,20.93
2016-06-15T08:35:17.167Z,20.96
2016-06-15T08:36:17.577Z,20.96
2016-06-15T08:37:17.486Z,20.93
2016-06-15T08:38:17.566Z,20.98
2016-06-15T08:39:17.367Z,20.97
2016-06-15T08:40:17.167Z,20.96
2016-06-15T08:41:17.560Z,20.94
2016-06-15T08:42:17.360Z,20.97
2016-06-15T08:43:17.551Z,21.06
2016-06-15T08:44:16.944Z,21
2016-06-15T08:45:17.152Z,21.04
2016-06-15T08:46:17.560Z,21.04
2016-06-15T08:47:16.954Z,21.06
2016-06-15T08:48:17.144Z,21.01
2016-06-15T08:49:17.350Z,21.03
2016-06-15T08:50:17.354Z,21
2016-06-15T08:51:17.137Z,20.97
2016-06-15T08:52:18.126Z,21.08
2016-06-15T08:53:17.143Z,21.06
2016-06-15T08:54:17.350Z,21.01
2016-06-15T08:55:17.182Z,21.06
2016-06-15T08:56:17.138Z,21.03
2016-06-15T08:57:17.188Z,21.11
2016-06-15T08:58:17.331Z,21.18
2016-06-15T08:59:17.537Z,21.16
2016-06-15T09:00:25.212Z,21.18
2016-06-15T09:01:17.181Z,21.18
2016-06-15T09:02:17.232Z,21.15
2016-06-15T09:03:17.532Z,21.16
2016-06-15T09:04:17.332Z,21.18
2016-06-15T09:05:17.131Z,21.25
2016-06-15T09:06:17.134Z,21.13
2016-06-15T09:07:17.637Z,21.15
2016-06-15T09:08:17.328Z,21.22
2016-06-15T09:09:17.129Z,21.28
2016-06-15T09:10:17.318Z,21.27
2016-06-15T09:11:17.321Z,21.31
2016-06-15T09:12:17.325Z,21.19
2016-06-15T09:13:25.232Z,21.22
2016-06-15T09:14:17.513Z,21.22
2016-06-15T09:15:17.108Z,21.22
2016-06-15T09:16:17.330Z,21.21
2016-06-15T09:17:16.912Z,21.19
2016-06-15T09:18:17.353Z,21.25
2016-06-15T09:19:17.511Z,21.28
2016-06-15T09:20:17.108Z,21.28
2016-06-15T09:21:17.315Z,21.27
2016-06-15T09:22:17.911Z,21.33
2016-06-15T09:23:17.321Z,21.19
2016-06-15T09:24:17.511Z,21.23
2016-06-15T09:25:17.499Z,21.28
2016-06-15T09:26:17.157Z,21.31
2016-06-15T09:27:17.302Z,21.25
2016-06-15T09:28:17.102Z,21.28
2016-06-15T09:29:16.896Z,21.28
2016-06-15T09:30:17.508Z,21.31
2016-06-15T09:31:17.136Z,21.37
2016-06-15T09:32:17.093Z,21.31
2016-06-15T09:33:17.503Z,21.3
2016-06-15T09:34:17.286Z,21.31
2016-06-15T09:35:17.509Z,21.41
2016-06-15T09:36:17.309Z,21.34
2016-06-15T09:37:17.092Z,21.43
2016-06-15T09:38:17.485Z,21.38
2016-06-15T09:39:17.301Z,21.33
2016-06-15T09:40:17.289Z,21.43
2016-06-15T09:41:17.495Z,21.33
2016-06-15T09:42:17.108Z,21.45
2016-06-15T09:43:17.298Z,21.33
2016-06-15T09:44:17.301Z,21.45
2016-06-15T09:45:17.290Z,21.33
2016-06-15T09:46:17.292Z,21.43
2016-06-15T09:47:17.138Z,21.45
2016-06-15T09:48:17.282Z,21.45
2016-06-15T09:49:17.286Z,21.48
2016-06-15T09:50:17.085Z,21.37
2016-06-15T09:51:16.933Z,21.41
2016-06-15T09:52:16.873Z,21.37
2016-06-15T09:53:17.079Z,21.4
2016-06-15T09:54:17.472Z,21.37
2016-06-15T09:55:17.070Z,21.4
2016-06-15T09:56:17.073Z,21.46
2016-06-15T09:57:17.326Z,21.43
2016-06-15T09:58:17.063Z,21.37
2016-06-15T09:59:17.270Z,21.41
2016-06-15T10:00:17.069Z,21.41
2016-06-15T10:01:17.275Z,21.34
2016-06-15T10:02:17.059Z,21.46
2016-06-15T10:03:17.469Z,21.49
2016-06-15T10:04:16.928Z,21.38
2016-06-15T10:05:17.331Z,21.4
2016-06-15T10:06:17.155Z,21.31
2016-06-15T10:07:17.871Z,21.37
2016-06-15T10:08:17.647Z,21.51
2016-06-15T10:09:17.459Z,21.4
2016-06-15T10:10:17.134Z,21.41
2016-06-15T10:11:17.290Z,21.45
2016-06-15T10:12:17.308Z,21.38
2016-06-15T10:13:17.732Z,21.38
2016-06-15T10:14:17.745Z,21.33
2016-06-15T10:15:17.332Z,21.43
2016-06-15T10:16:32.230Z,21.34
2016-06-15T10:17:17.536Z,21.41
2016-06-15T10:18:26.294Z,21.36
2016-06-15T10:19:17.754Z,21.41
2016-06-15T10:20:17.556Z,21.37
2016-06-15T10:21:17.545Z,21.48
2016-06-15T10:22:18.144Z,21.49
2016-06-15T10:23:17.759Z,21.48
2016-06-15T10:24:17.559Z,21.43
2016-06-15T10:25:17.767Z,21.4
2016-06-15T10:26:17.552Z,21.43
2016-06-15T10:27:17.554Z,21.43
2016-06-15T10:28:17.152Z,21.4
2016-06-15T10:29:17.562Z,21.51
2016-06-15T10:30:17.549Z,21.52
2016-06-15T10:31:17.755Z,21.48
2016-06-15T10:32:17.759Z,21.46
2016-06-15T10:33:17.544Z,21.55
2016-06-15T10:34:17.563Z,21.56
2016-06-15T10:35:17.551Z,21.53
2016-06-15T10:36:23.319Z,21.53
2016-06-15T10:37:30.808Z,21.48
2016-06-15T10:38:28.825Z,21.51
2016-06-15T10:39:39.438Z,21.53
2016-06-15T10:40:43.723Z,21.49
2016-06-15T10:41:45.726Z,21.58
2016-06-15T10:42:41.557Z,21.56
2016-06-15T10:43:27.013Z,21.51
2016-06-15T10:44:26.938Z,21.51
2016-06-15T10:45:38.628Z,21.53
2016-06-15T10:46:54.836Z,21.52
2016-06-15T10:47:52.306Z,21.53
2016-06-15T10:49:19.063Z,21.56
2016-06-15T10:50:15.113Z,21.52
2016-06-15T10:51:18.335Z,21.53
2016-06-15T10:52:23.541Z,21.52
2016-06-15T10:54:12.188Z,21.55
2016-06-15T10:55:50.831Z,21.61
2016-06-15T10:56:23.569Z,21.61
2016-06-15T10:57:23.165Z,21.58
2016-06-15T10:58:23.168Z,21.64
2016-06-15T10:59:23.360Z,21.62
2016-06-15T11:00:23.144Z,21.73
2016-06-15T11:01:23.413Z,21.64
2016-06-15T11:02:23.556Z,21.62
2016-06-15T11:03:23.356Z,21.64
2016-06-15T11:04:23.359Z,21.64
2016-06-15T11:05:23.362Z,21.59
2016-06-15T11:06:22.944Z,21.64
2016-06-15T11:07:23.571Z,21.66
2016-06-15T11:08:23.559Z,21.66
2016-06-15T11:09:23.547Z,21.62
2016-06-15T11:10:23.346Z,21.67
2016-06-15T11:11:23.334Z,21.61
2016-06-15T11:12:23.150Z,21.58
2016-06-15T11:13:23.340Z,21.64
2016-06-15T11:14:23.342Z,21.7
2016-06-15T11:15:23.550Z,21.7
2016-06-15T11:16:23.146Z,21.7
2016-06-15T11:17:23.337Z,21.74
2016-06-15T11:18:23.341Z,21.71
2016-06-15T11:19:23.546Z,21.73
2016-06-15T11:20:23.128Z,21.66
2016-06-15T11:21:23.350Z,21.7
2016-06-15T11:22:23.711Z,21.7
2016-06-15T11:23:23.542Z,21.71
2016-06-15T11:24:23.328Z,21.7
2016-06-15T11:25:23.189Z,21.71
2016-06-15T11:26:23.334Z,21.73
2016-06-15T11:27:23.337Z,21.66
2016-06-15T11:28:23.339Z,21.71
2016-06-15T11:29:23.124Z,21.77
2016-06-15T11:30:23.533Z,21.71
2016-06-15T11:31:22.927Z,21.71
2016-06-15T11:32:23.523Z,21.73
2016-06-15T11:33:23.120Z,21.68
2016-06-15T11:34:23.326Z,21.76
2016-06-15T11:35:22.924Z,21.62
2016-06-15T11:36:22.927Z,21.66
2016-06-15T11:37:22.773Z,21.71
2016-06-15T11:38:23.120Z,21.73
2016-06-15T11:39:23.529Z,21.7
2016-06-15T11:40:22.751Z,21.71
2016-06-15T11:41:23.520Z,21.77
2016-06-15T11:42:22.929Z,21.68
2016-06-15T11:43:22.917Z,21.82
2016-06-15T11:44:23.107Z,21.7
2016-06-15T11:45:23.313Z,21.68
2016-06-15T11:46:23.317Z,21.68
2016-06-15T11:47:22.913Z,21.78
2016-06-15T11:48:23.322Z,21.64
2016-06-15T11:49:23.514Z,21.78
2016-06-15T11:50:23.110Z,21.82
2016-06-15T11:51:23.176Z,21.64
2016-06-15T11:52:23.132Z,21.76
2016-06-15T11:53:22.760Z,21.77
2016-06-15T11:54:23.310Z,21.78
2016-06-15T11:55:23.328Z,21.68
2016-06-15T11:56:22.910Z,21.76
2016-06-15T11:57:23.507Z,21.76
2016-06-15T11:58:23.510Z,21.77
2016-06-15T11:59:23.107Z,21.67
2016-06-15T12:00:23.313Z,21.77
2016-06-15T12:01:23.301Z,21.71
2016-06-15T12:02:23.304Z,21.74
2016-06-15T12:03:23.104Z,21.71
2016-06-15T12:04:22.747Z,21.77
2016-06-15T12:05:23.093Z,21.68
2016-06-15T12:06:23.300Z,21.76
2016-06-15T12:07:23.646Z,21.73
2016-06-15T12:08:22.884Z,21.77
2016-06-15T12:09:23.497Z,21.78
2016-06-15T12:10:23.297Z,21.76
2016-06-15T12:11:23.300Z,21.83
2016-06-15T12:12:23.146Z,21.77
2016-06-15T12:13:23.337Z,21.73
2016-06-15T12:14:23.310Z,21.77
2016-06-15T12:15:23.094Z,21.71
2016-06-15T12:16:23.283Z,21.85
2016-06-15T12:17:23.099Z,21.78
2016-06-15T12:18:22.931Z,21.83
2016-06-15T12:19:23.497Z,21.78
2016-06-15T12:20:23.281Z,21.8
2016-06-15T12:21:23.487Z,21.78
2016-06-15T12:22:23.301Z,21.83
2016-06-15T12:23:23.321Z,21.78
2016-06-15T12:24:22.871Z,21.83
2016-06-15T12:25:23.343Z,21.85
2016-06-15T12:26:23.096Z,21.8
2016-06-15T12:27:23.099Z,21.78
2016-06-15T12:28:23.492Z,21.8
2016-06-15T12:29:23.481Z,21.85
2016-06-15T12:30:23.484Z,21.83
2016-06-15T12:31:23.487Z,21.8
2016-06-15T12:32:22.879Z,21.89
2016-06-15T12:33:23.289Z,21.9
2016-06-15T12:34:23.074Z,21.93
2016-06-15T12:35:23.124Z,21.89
2016-06-15T12:36:23.282Z,21.9
2016-06-15T12:37:23.239Z,21.94
2016-06-15T12:38:23.289Z,21.86
2016-06-15T12:39:23.479Z,21.89
2016-06-15T12:40:23.093Z,21.85
2016-06-15T12:41:22.876Z,21.85
2016-06-15T12:42:23.067Z,21.85
2016-06-15T12:43:23.476Z,21.86
2016-06-15T12:44:23.277Z,21.9
2016-06-15T12:45:23.280Z,22.04
2016-06-15T12:46:23.080Z,21.97
2016-06-15T12:47:23.333Z,21.99
2016-06-15T12:48:23.272Z,21.9
2016-06-15T12:49:23.276Z,21.89
2016-06-15T12:50:23.482Z,21.85
2016-06-15T12:51:23.126Z,21.97
2016-06-15T12:52:23.082Z,21.97
2016-06-15T12:53:23.476Z,21.85
2016-06-15T12:54:22.917Z,21.94
2016-06-15T12:55:23.278Z,21.96
2016-06-15T12:56:23.469Z,21.92
2016-06-15T12:57:23.331Z,21.85